sensor_id;sensor_type;location;lat;lon;timestamp;pressure;altitude;pressure_sealevel;temperature;humidity
4326;BME280;58429;49.826;10.880;2023-04-29T00:00:34;98220;;;12.31;86.14
4326;BME280;58429;49.826;10.880;2023-04-29T00:01:34;98223;;;12.33;86.1
4326;BME280;58429;49.826;10.880;2023-04-29T00:02:34;98219;;;12.32;86.07
4326;BME280;58429;49.826;10.880;2023-04-29T00:03:34;98221;;;12.29;86.06
4326;BME280;58429;49.826;10.880;2023-04-29T00:04:34;98213;;;12.3;86.05
4326;BME280;58429;49.826;10.880;2023-04-29T00:05:34;98223;;;12.3;86.07
4326;BME280;58429;49.826;10.880;2023-04-29T00:06:34;98219;;;12.28;86.03
4326;BME280;58429;49.826;10.880;2023-04-29T00:07:34;98222;;;12.24;86
4326;BME280;58429;49.826;10.880;2023-04-29T00:08:34;98218;;;12.28;86.01
4326;BME280;58429;49.826;10.880;2023-04-29T00:09:34;98218;;;12.24;85.96
4326;BME280;58429;49.826;10.880;2023-04-29T00:10:34;98218;;;12.21;85.95
4326;BME280;58429;49.826;10.880;2023-04-29T00:11:34;98215;;;12.23;85.95
4326;BME280;58429;49.826;10.880;2023-04-29T00:12:34;98229;;;12.16;85.81
4326;BME280;58429;49.826;10.880;2023-04-29T00:13:34;98224;;;12.12;85.78
4326;BME280;58429;49.826;10.880;2023-04-29T00:14:34;98221;;;12.12;85.76
4326;BME280;58429;49.826;10.880;2023-04-29T00:15:34;98221;;;12.1;85.7
4326;BME280;58429;49.826;10.880;2023-04-29T00:16:34;98218;;;12.12;85.64
4326;BME280;58429;49.826;10.880;2023-04-29T00:17:34;98216;;;12.08;85.69
4326;BME280;58429;49.826;10.880;2023-04-29T00:18:34;98216;;;12.09;85.69
4326;BME280;58429;49.826;10.880;2023-04-29T00:19:34;98216;;;12.05;85.75
4326;BME280;58429;49.826;10.880;2023-04-29T00:20:34;98217;;;12.07;85.82
4326;BME280;58429;49.826;10.880;2023-04-29T00:21:34;98213;;;12.06;85.72
4326;BME280;58429;49.826;10.880;2023-04-29T00:22:34;98221;;;12.01;85.56
4326;BME280;58429;49.826;10.880;2023-04-29T00:23:34;98224;;;11.96;85.45
4326;BME280;58429;49.826;10.880;2023-04-29T00:24:34;98220;;;11.94;85.28
4326;BME280;58429;49.826;10.880;2023-04-29T00:25:34;98220;;;11.92;85.25
4326;BME280;58429;49.826;10.880;2023-04-29T00:26:34;98218;;;11.89;85.39
4326;BME280;58429;49.826;10.880;2023-04-29T00:27:34;98222;;;11.91;85.7
4326;BME280;58429;49.826;10.880;2023-04-29T00:28:34;98218;;;11.9;85.88
4326;BME280;58429;49.826;10.880;2023-04-29T00:29:34;98224;;;11.91;85.94
4326;BME280;58429;49.826;10.880;2023-04-29T00:30:34;98221;;;11.9;85.99
4326;BME280;58429;49.826;10.880;2023-04-29T00:31:34;98218;;;11.89;86.03
4326;BME280;58429;49.826;10.880;2023-04-29T00:32:34;98224;;;11.89;86.08
4326;BME280;58429;49.826;10.880;2023-04-29T00:33:34;98216;;;11.91;86.15
4326;BME280;58429;49.826;10.880;2023-04-29T00:34:34;98223;;;11.87;86.1
4326;BME280;58429;49.826;10.880;2023-04-29T00:35:34;98222;;;11.9;86.09
4326;BME280;58429;49.826;10.880;2023-04-29T00:36:34;98225;;;11.89;86.06
4326;BME280;58429;49.826;10.880;2023-04-29T00:37:34;98225;;;11.88;85.97
4326;BME280;58429;49.826;10.880;2023-04-29T00:38:34;98228;;;11.89;85.89
4326;BME280;58429;49.826;10.880;2023-04-29T00:39:34;98224;;;11.86;85.67
4326;BME280;58429;49.826;10.880;2023-04-29T00:40:34;98228;;;11.86;85.58
4326;BME280;58429;49.826;10.880;2023-04-29T00:41:34;98227;;;11.81;85.35
4326;BME280;58429;49.826;10.880;2023-04-29T00:42:34;98229;;;11.82;85.38
4326;BME280;58429;49.826;10.880;2023-04-29T00:43:34;98230;;;11.81;85.4
4326;BME280;58429;49.826;10.880;2023-04-29T00:44:34;98234;;;11.81;85.41
4326;BME280;58429;49.826;10.880;2023-04-29T00:45:34;98228;;;11.76;85.35
4326;BME280;58429;49.826;10.880;2023-04-29T00:46:34;98230;;;11.71;85.57
4326;BME280;58429;49.826;10.880;2023-04-29T00:47:34;98226;;;11.77;85.76
4326;BME280;58429;49.826;10.880;2023-04-29T00:48:34;98222;;;11.71;85.8
4326;BME280;58429;49.826;10.880;2023-04-29T00:49:34;98224;;;11.68;85.62
4326;BME280;58429;49.826;10.880;2023-04-29T00:50:34;98223;;;11.65;85.38
4326;BME280;58429;49.826;10.880;2023-04-29T00:51:34;98225;;;11.63;85.2
4326;BME280;58429;49.826;10.880;2023-04-29T00:52:34;98223;;;11.6;85.06
4326;BME280;58429;49.826;10.880;2023-04-29T00:53:34;98225;;;11.55;85.02
4326;BME280;58429;49.826;10.880;2023-04-29T00:54:34;98228;;;11.58;85.02
4326;BME280;58429;49.826;10.880;2023-04-29T00:55:34;98224;;;11.56;84.98
4326;BME280;58429;49.826;10.880;2023-04-29T00:56:34;98228;;;11.56;84.94
4326;BME280;58429;49.826;10.880;2023-04-29T00:57:34;98232;;;11.52;84.92
4326;BME280;58429;49.826;10.880;2023-04-29T00:58:34;98234;;;11.52;84.91
4326;BME280;58429;49.826;10.880;2023-04-29T00:59:34;98235;;;11.49;85.06
4326;BME280;58429;49.826;10.880;2023-04-29T01:00:34;98225;;;11.51;85.31
4326;BME280;58429;49.826;10.880;2023-04-29T01:01:34;98228;;;11.52;85.49
4326;BME280;58429;49.826;10.880;2023-04-29T01:02:34;98230;;;11.54;85.6
4326;BME280;58429;49.826;10.880;2023-04-29T01:03:34;98227;;;11.48;85.55
4326;BME280;58429;49.826;10.880;2023-04-29T01:04:34;98225;;;11.5;85.51
4326;BME280;58429;49.826;10.880;2023-04-29T01:05:34;98230;;;11.51;85.46
4326;BME280;58429;49.826;10.880;2023-04-29T01:06:36;98222;;;11.45;85.47
4326;BME280;58429;49.826;10.880;2023-04-29T01:07:36;98226;;;11.46;85.66
4326;BME280;58429;49.826;10.880;2023-04-29T01:08:37;98228;;;11.51;85.65
4326;BME280;58429;49.826;10.880;2023-04-29T01:09:46;98226;;;11.46;85.64
4326;BME280;58429;49.826;10.880;2023-04-29T01:10:34;98227;;;11.47;85.65
4326;BME280;58429;49.826;10.880;2023-04-29T01:11:34;98232;;;11.46;85.68
4326;BME280;58429;49.826;10.880;2023-04-29T01:12:37;98230;;;11.48;85.79
4326;BME280;58429;49.826;10.880;2023-04-29T01:13:36;98225;;;11.47;86
4326;BME280;58429;49.826;10.880;2023-04-29T01:14:34;98229;;;11.43;86.06
4326;BME280;58429;49.826;10.880;2023-04-29T01:15:37;98228;;;11.46;86.28
4326;BME280;58429;49.826;10.880;2023-04-29T01:16:36;98236;;;11.4;86.44
4326;BME280;58429;49.826;10.880;2023-04-29T01:17:35;98233;;;11.45;86.59
4326;BME280;58429;49.826;10.880;2023-04-29T01:18:36;98228;;;11.45;86.6
4326;BME280;58429;49.826;10.880;2023-04-29T01:19:38;98227;;;11.45;86.64
4326;BME280;58429;49.826;10.880;2023-04-29T01:20:34;98223;;;11.47;86.68
4326;BME280;58429;49.826;10.880;2023-04-29T01:21:44;98223;;;11.46;86.72
4326;BME280;58429;49.826;10.880;2023-04-29T01:22:34;98223;;;11.41;86.84
4326;BME280;58429;49.826;10.880;2023-04-29T01:23:34;98227;;;11.4;86.84
4326;BME280;58429;49.826;10.880;2023-04-29T01:24:34;98229;;;11.44;86.86
4326;BME280;58429;49.826;10.880;2023-04-29T01:25:34;98225;;;11.42;86.89
4326;BME280;58429;49.826;10.880;2023-04-29T01:26:34;98228;;;11.43;86.93
4326;BME280;58429;49.826;10.880;2023-04-29T01:27:36;98230;;;11.4;86.95
4326;BME280;58429;49.826;10.880;2023-04-29T01:28:37;98226;;;11.4;86.94
4326;BME280;58429;49.826;10.880;2023-04-29T01:29:36;98223;;;11.42;86.98
4326;BME280;58429;49.826;10.880;2023-04-29T01:30:36;98222;;;11.44;87
4326;BME280;58429;49.826;10.880;2023-04-29T01:31:35;98224;;;11.41;87.01
4326;BME280;58429;49.826;10.880;2023-04-29T01:32:36;98224;;;11.39;87.05
4326;BME280;58429;49.826;10.880;2023-04-29T01:33:36;98221;;;11.38;87.02
4326;BME280;58429;49.826;10.880;2023-04-29T01:34:41;98222;;;11.36;86.97
4326;BME280;58429;49.826;10.880;2023-04-29T01:35:39;98217;;;11.37;86.88
4326;BME280;58429;49.826;10.880;2023-04-29T01:36:35;98225;;;11.36;86.77
4326;BME280;58429;49.826;10.880;2023-04-29T01:37:35;98228;;;11.35;86.63
4326;BME280;58429;49.826;10.880;2023-04-29T01:38:35;98226;;;11.35;86.53
4326;BME280;58429;49.826;10.880;2023-04-29T01:39:36;98229;;;11.35;86.46
4326;BME280;58429;49.826;10.880;2023-04-29T01:40:36;98231;;;11.35;86.37
4326;BME280;58429;49.826;10.880;2023-04-29T01:41:34;98233;;;11.32;86.35
4326;BME280;58429;49.826;10.880;2023-04-29T01:42:35;98231;;;11.28;86.35
4326;BME280;58429;49.826;10.880;2023-04-29T01:43:34;98227;;;11.23;86.52
4326;BME280;58429;49.826;10.880;2023-04-29T01:44:34;98233;;;11.21;86.59
4326;BME280;58429;49.826;10.880;2023-04-29T01:45:34;98232;;;11.18;86.66
4326;BME280;58429;49.826;10.880;2023-04-29T01:46:34;98234;;;11.2;86.75
4326;BME280;58429;49.826;10.880;2023-04-29T01:47:34;98233;;;11.15;86.78
4326;BME280;58429;49.826;10.880;2023-04-29T01:48:34;98228;;;11.15;86.82
4326;BME280;58429;49.826;10.880;2023-04-29T01:49:34;98231;;;11.11;86.84
4326;BME280;58429;49.826;10.880;2023-04-29T01:50:34;98235;;;11.09;86.92
4326;BME280;58429;49.826;10.880;2023-04-29T01:51:34;98229;;;11.08;87.06
4326;BME280;58429;49.826;10.880;2023-04-29T01:52:34;98233;;;11.06;87.07
4326;BME280;58429;49.826;10.880;2023-04-29T01:53:34;98235;;;11.07;87.06
4326;BME280;58429;49.826;10.880;2023-04-29T01:54:34;98234;;;11.06;87.05
4326;BME280;58429;49.826;10.880;2023-04-29T01:55:34;98230;;;11.04;87.16
4326;BME280;58429;49.826;10.880;2023-04-29T01:56:34;98231;;;11.02;87.18
4326;BME280;58429;49.826;10.880;2023-04-29T01:57:34;98235;;;11.04;87.24
4326;BME280;58429;49.826;10.880;2023-04-29T01:58:34;98237;;;10.98;87.31
4326;BME280;58429;49.826;10.880;2023-04-29T01:59:34;98229;;;10.99;87.36
4326;BME280;58429;49.826;10.880;2023-04-29T02:00:34;98238;;;10.97;87.39
4326;BME280;58429;49.826;10.880;2023-04-29T02:01:34;98233;;;11.01;87.38
4326;BME280;58429;49.826;10.880;2023-04-29T02:02:34;98227;;;11;87.35
4326;BME280;58429;49.826;10.880;2023-04-29T02:03:34;98230;;;11.01;87.35
4326;BME280;58429;49.826;10.880;2023-04-29T02:04:34;98229;;;11.03;87.32
4326;BME280;58429;49.826;10.880;2023-04-29T02:05:34;98229;;;11.02;87.28
4326;BME280;58429;49.826;10.880;2023-04-29T02:06:34;98228;;;11.03;87.28
4326;BME280;58429;49.826;10.880;2023-04-29T02:07:34;98232;;;11.04;87.24
4326;BME280;58429;49.826;10.880;2023-04-29T02:08:34;98227;;;11.04;87.21
4326;BME280;58429;49.826;10.880;2023-04-29T02:09:34;98235;;;11.04;87.22
4326;BME280;58429;49.826;10.880;2023-04-29T02:10:34;98229;;;11.03;87.19
4326;BME280;58429;49.826;10.880;2023-04-29T02:11:34;98231;;;11.04;87.17
4326;BME280;58429;49.826;10.880;2023-04-29T02:12:34;98229;;;11.04;87.15
4326;BME280;58429;49.826;10.880;2023-04-29T02:13:34;98233;;;11.06;87.16
4326;BME280;58429;49.826;10.880;2023-04-29T02:14:34;98239;;;11.05;87.17
4326;BME280;58429;49.826;10.880;2023-04-29T02:15:34;98234;;;11.05;87.23
4326;BME280;58429;49.826;10.880;2023-04-29T02:16:34;98238;;;11.01;87.28
4326;BME280;58429;49.826;10.880;2023-04-29T02:17:34;98229;;;11.01;87.27
4326;BME280;58429;49.826;10.880;2023-04-29T02:18:34;98233;;;11;87.38
4326;BME280;58429;49.826;10.880;2023-04-29T02:19:34;98233;;;10.95;87.51
4326;BME280;58429;49.826;10.880;2023-04-29T02:20:34;98240;;;10.93;87.73
4326;BME280;58429;49.826;10.880;2023-04-29T02:21:34;98234;;;10.93;87.81
4326;BME280;58429;49.826;10.880;2023-04-29T02:22:34;98237;;;10.86;87.94
4326;BME280;58429;49.826;10.880;2023-04-29T02:23:34;98236;;;10.88;88.17
4326;BME280;58429;49.826;10.880;2023-04-29T02:24:34;98235;;;10.85;88.33
4326;BME280;58429;49.826;10.880;2023-04-29T02:25:34;98238;;;10.85;88.28
4326;BME280;58429;49.826;10.880;2023-04-29T02:26:34;98228;;;10.83;88.26
4326;BME280;58429;49.826;10.880;2023-04-29T02:27:34;98238;;;10.82;88.23
4326;BME280;58429;49.826;10.880;2023-04-29T02:28:34;98238;;;10.83;88.29
4326;BME280;58429;49.826;10.880;2023-04-29T02:29:34;98236;;;10.8;88.31
4326;BME280;58429;49.826;10.880;2023-04-29T02:30:34;98238;;;10.79;88.37
4326;BME280;58429;49.826;10.880;2023-04-29T02:31:34;98238;;;10.79;88.41
4326;BME280;58429;49.826;10.880;2023-04-29T02:32:34;98242;;;10.73;88.49
4326;BME280;58429;49.826;10.880;2023-04-29T02:33:34;98242;;;10.76;88.46
4326;BME280;58429;49.826;10.880;2023-04-29T02:34:34;98247;;;10.75;88.4
4326;BME280;58429;49.826;10.880;2023-04-29T02:35:34;98246;;;10.76;88.33
4326;BME280;58429;49.826;10.880;2023-04-29T02:36:34;98247;;;10.76;88.43
4326;BME280;58429;49.826;10.880;2023-04-29T02:37:34;98247;;;10.75;88.49
4326;BME280;58429;49.826;10.880;2023-04-29T02:38:34;98251;;;10.7;88.35
4326;BME280;58429;49.826;10.880;2023-04-29T02:39:34;98253;;;10.71;88.27
4326;BME280;58429;49.826;10.880;2023-04-29T02:40:34;98254;;;10.71;88.21
4326;BME280;58429;49.826;10.880;2023-04-29T02:41:34;98246;;;10.72;88.19
4326;BME280;58429;49.826;10.880;2023-04-29T02:42:34;98240;;;10.76;88.11
4326;BME280;58429;49.826;10.880;2023-04-29T02:43:34;98252;;;10.71;88.11
4326;BME280;58429;49.826;10.880;2023-04-29T02:44:34;98247;;;10.75;88.08
4326;BME280;58429;49.826;10.880;2023-04-29T02:45:34;98244;;;10.73;88
4326;BME280;58429;49.826;10.880;2023-04-29T02:46:34;98244;;;10.7;87.9
4326;BME280;58429;49.826;10.880;2023-04-29T02:47:34;98247;;;10.72;87.92
4326;BME280;58429;49.826;10.880;2023-04-29T02:48:34;98250;;;10.73;87.96
4326;BME280;58429;49.826;10.880;2023-04-29T02:49:34;98254;;;10.71;87.89
4326;BME280;58429;49.826;10.880;2023-04-29T02:50:34;98253;;;10.69;87.91
4326;BME280;58429;49.826;10.880;2023-04-29T02:51:34;98250;;;10.73;87.91
4326;BME280;58429;49.826;10.880;2023-04-29T02:52:34;98248;;;10.67;87.88
4326;BME280;58429;49.826;10.880;2023-04-29T02:53:34;98246;;;10.65;87.87
4326;BME280;58429;49.826;10.880;2023-04-29T02:54:34;98246;;;10.63;87.86
4326;BME280;58429;49.826;10.880;2023-04-29T02:55:34;98247;;;10.62;87.86
4326;BME280;58429;49.826;10.880;2023-04-29T02:56:34;98250;;;10.59;88
4326;BME280;58429;49.826;10.880;2023-04-29T02:57:34;98251;;;10.51;88.04
4326;BME280;58429;49.826;10.880;2023-04-29T02:58:34;98242;;;10.5;87.99
4326;BME280;58429;49.826;10.880;2023-04-29T02:59:34;98252;;;10.53;87.97
4326;BME280;58429;49.826;10.880;2023-04-29T03:00:34;98245;;;10.48;88.03
4326;BME280;58429;49.826;10.880;2023-04-29T03:01:34;98252;;;10.44;88.09
4326;BME280;58429;49.826;10.880;2023-04-29T03:02:34;98249;;;10.37;88.17
4326;BME280;58429;49.826;10.880;2023-04-29T03:03:34;98255;;;10.37;88.12
4326;BME280;58429;49.826;10.880;2023-04-29T03:04:34;98260;;;10.35;88.06
4326;BME280;58429;49.826;10.880;2023-04-29T03:05:34;98257;;;10.3;87.8
4326;BME280;58429;49.826;10.880;2023-04-29T03:06:34;98261;;;10.22;87.65
4326;BME280;58429;49.826;10.880;2023-04-29T03:07:34;98254;;;10.2;87.42
4326;BME280;58429;49.826;10.880;2023-04-29T03:08:34;98258;;;10.12;87.26
4326;BME280;58429;49.826;10.880;2023-04-29T03:09:34;98256;;;10.06;87.15
4326;BME280;58429;49.826;10.880;2023-04-29T03:10:34;98259;;;9.98;86.99
4326;BME280;58429;49.826;10.880;2023-04-29T03:11:34;98262;;;9.98;87.02
4326;BME280;58429;49.826;10.880;2023-04-29T03:12:34;98259;;;9.9;86.91
4326;BME280;58429;49.826;10.880;2023-04-29T03:13:34;98261;;;9.86;86.93
4326;BME280;58429;49.826;10.880;2023-04-29T03:14:34;98262;;;9.78;86.92
4326;BME280;58429;49.826;10.880;2023-04-29T03:15:34;98260;;;9.79;86.96
4326;BME280;58429;49.826;10.880;2023-04-29T03:16:34;98264;;;9.75;86.9
4326;BME280;58429;49.826;10.880;2023-04-29T03:17:34;98267;;;9.77;86.93
4326;BME280;58429;49.826;10.880;2023-04-29T03:18:34;98266;;;9.71;86.85
4326;BME280;58429;49.826;10.880;2023-04-29T03:19:34;98270;;;9.72;86.98
4326;BME280;58429;49.826;10.880;2023-04-29T03:20:34;98267;;;9.67;86.95
4326;BME280;58429;49.826;10.880;2023-04-29T03:21:34;98267;;;9.67;86.93
4326;BME280;58429;49.826;10.880;2023-04-29T03:22:34;98265;;;9.66;86.95
4326;BME280;58429;49.826;10.880;2023-04-29T03:23:35;98257;;;9.63;87.01
4326;BME280;58429;49.826;10.880;2023-04-29T03:24:34;98265;;;9.66;87.06
4326;BME280;58429;49.826;10.880;2023-04-29T03:25:34;98258;;;9.66;87.08
4326;BME280;58429;49.826;10.880;2023-04-29T03:26:34;98260;;;9.67;87.07
4326;BME280;58429;49.826;10.880;2023-04-29T03:27:34;98258;;;9.7;87.12
4326;BME280;58429;49.826;10.880;2023-04-29T03:28:34;98262;;;9.71;87.18
4326;BME280;58429;49.826;10.880;2023-04-29T03:29:34;98257;;;9.72;87.12
4326;BME280;58429;49.826;10.880;2023-04-29T03:30:34;98248;;;9.72;87.05
4326;BME280;58429;49.826;10.880;2023-04-29T03:31:34;98255;;;9.72;87.06
4326;BME280;58429;49.826;10.880;2023-04-29T03:32:34;98257;;;9.71;87.09
4326;BME280;58429;49.826;10.880;2023-04-29T03:33:34;98261;;;9.73;87.37
4326;BME280;58429;49.826;10.880;2023-04-29T03:34:34;98258;;;9.73;87.57
4326;BME280;58429;49.826;10.880;2023-04-29T03:35:34;98264;;;9.68;87.68
4326;BME280;58429;49.826;10.880;2023-04-29T03:36:34;98257;;;9.65;87.74
4326;BME280;58429;49.826;10.880;2023-04-29T03:37:34;98260;;;9.61;87.99
4326;BME280;58429;49.826;10.880;2023-04-29T03:38:34;98255;;;9.6;88.27
4326;BME280;58429;49.826;10.880;2023-04-29T03:39:34;98260;;;9.58;88.47
4326;BME280;58429;49.826;10.880;2023-04-29T03:40:34;98262;;;9.55;88.34
4326;BME280;58429;49.826;10.880;2023-04-29T03:41:34;98260;;;9.6;88.25
4326;BME280;58429;49.826;10.880;2023-04-29T03:42:34;98259;;;9.59;88.36
4326;BME280;58429;49.826;10.880;2023-04-29T03:43:34;98262;;;9.58;88.31
4326;BME280;58429;49.826;10.880;2023-04-29T03:44:34;98257;;;9.6;88.37
4326;BME280;58429;49.826;10.880;2023-04-29T03:45:34;98259;;;9.59;88.32
4326;BME280;58429;49.826;10.880;2023-04-29T03:46:34;98257;;;9.61;88.31
4326;BME280;58429;49.826;10.880;2023-04-29T03:47:34;98256;;;9.59;88.39
4326;BME280;58429;49.826;10.880;2023-04-29T03:48:34;98255;;;9.61;88.28
4326;BME280;58429;49.826;10.880;2023-04-29T03:49:34;98259;;;9.59;88.23
4326;BME280;58429;49.826;10.880;2023-04-29T03:50:34;98255;;;9.61;88.2
4326;BME280;58429;49.826;10.880;2023-04-29T03:51:34;98260;;;9.61;88.11
4326;BME280;58429;49.826;10.880;2023-04-29T03:52:34;98265;;;9.62;88.04
4326;BME280;58429;49.826;10.880;2023-04-29T03:53:34;98266;;;9.58;88.1
4326;BME280;58429;49.826;10.880;2023-04-29T03:54:34;98257;;;9.61;88.07
4326;BME280;58429;49.826;10.880;2023-04-29T03:55:34;98261;;;9.62;87.99
4326;BME280;58429;49.826;10.880;2023-04-29T03:56:34;98264;;;9.6;87.95
4326;BME280;58429;49.826;10.880;2023-04-29T03:57:34;98265;;;9.66;87.93
4326;BME280;58429;49.826;10.880;2023-04-29T03:58:34;98267;;;9.66;87.89
4326;BME280;58429;49.826;10.880;2023-04-29T03:59:34;98263;;;9.63;87.84
4326;BME280;58429;49.826;10.880;2023-04-29T04:00:34;98271;;;9.68;87.83
4326;BME280;58429;49.826;10.880;2023-04-29T04:01:34;98266;;;9.68;87.93
4326;BME280;58429;49.826;10.880;2023-04-29T04:02:34;98265;;;9.65;88.07
4326;BME280;58429;49.826;10.880;2023-04-29T04:03:34;98261;;;9.63;87.98
4326;BME280;58429;49.826;10.880;2023-04-29T04:04:34;98263;;;9.66;87.94
4326;BME280;58429;49.826;10.880;2023-04-29T04:05:34;98270;;;9.67;87.91
4326;BME280;58429;49.826;10.880;2023-04-29T04:06:34;98276;;;9.68;87.87
4326;BME280;58429;49.826;10.880;2023-04-29T04:07:34;98273;;;9.68;87.82
4326;BME280;58429;49.826;10.880;2023-04-29T04:08:34;98278;;;9.69;87.78
4326;BME280;58429;49.826;10.880;2023-04-29T04:09:34;98272;;;9.71;87.71
4326;BME280;58429;49.826;10.880;2023-04-29T04:10:34;98284;;;9.69;87.67
4326;BME280;58429;49.826;10.880;2023-04-29T04:11:34;98276;;;9.69;87.62
4326;BME280;58429;49.826;10.880;2023-04-29T04:12:34;98276;;;9.71;87.57
4326;BME280;58429;49.826;10.880;2023-04-29T04:13:34;98283;;;9.68;87.52
4326;BME280;58429;49.826;10.880;2023-04-29T04:14:34;98284;;;9.65;87.5
4326;BME280;58429;49.826;10.880;2023-04-29T04:15:35;98282;;;9.72;87.49
4326;BME280;58429;49.826;10.880;2023-04-29T04:16:34;98281;;;9.67;87.44
4326;BME280;58429;49.826;10.880;2023-04-29T04:17:34;98286;;;9.67;87.39
4326;BME280;58429;49.826;10.880;2023-04-29T04:18:34;98287;;;9.67;87.39
4326;BME280;58429;49.826;10.880;2023-04-29T04:19:34;98285;;;9.66;87.38
4326;BME280;58429;49.826;10.880;2023-04-29T04:20:35;98283;;;9.66;87.32
4326;BME280;58429;49.826;10.880;2023-04-29T04:21:34;98290;;;9.66;87.29
4326;BME280;58429;49.826;10.880;2023-04-29T04:22:34;98292;;;9.68;87.27
4326;BME280;58429;49.826;10.880;2023-04-29T04:23:34;98295;;;9.66;87.26
4326;BME280;58429;49.826;10.880;2023-04-29T04:24:34;98294;;;9.63;87.22
4326;BME280;58429;49.826;10.880;2023-04-29T04:25:34;98295;;;9.63;87.25
4326;BME280;58429;49.826;10.880;2023-04-29T04:26:34;98294;;;9.6;87.28
4326;BME280;58429;49.826;10.880;2023-04-29T04:27:34;98296;;;9.6;87.31
4326;BME280;58429;49.826;10.880;2023-04-29T04:28:34;98298;;;9.6;87.31
4326;BME280;58429;49.826;10.880;2023-04-29T04:29:34;98296;;;9.57;87.31
4326;BME280;58429;49.826;10.880;2023-04-29T04:30:34;98296;;;9.59;87.34
4326;BME280;58429;49.826;10.880;2023-04-29T04:31:34;98303;;;9.61;87.35
4326;BME280;58429;49.826;10.880;2023-04-29T04:32:34;98300;;;9.62;87.31
4326;BME280;58429;49.826;10.880;2023-04-29T04:33:34;98302;;;9.64;87.29
4326;BME280;58429;49.826;10.880;2023-04-29T04:34:34;98298;;;9.65;87.28
4326;BME280;58429;49.826;10.880;2023-04-29T04:35:34;98301;;;9.6;87.26
4326;BME280;58429;49.826;10.880;2023-04-29T04:36:34;98308;;;9.65;87.25
4326;BME280;58429;49.826;10.880;2023-04-29T04:37:34;98312;;;9.6;87.3
4326;BME280;58429;49.826;10.880;2023-04-29T04:38:34;98306;;;9.57;87.34
4326;BME280;58429;49.826;10.880;2023-04-29T04:39:34;98312;;;9.57;87.38
4326;BME280;58429;49.826;10.880;2023-04-29T04:40:34;98313;;;9.56;87.38
4326;BME280;58429;49.826;10.880;2023-04-29T04:41:34;98312;;;9.59;87.45
4326;BME280;58429;49.826;10.880;2023-04-29T04:42:34;98312;;;9.56;87.45
4326;BME280;58429;49.826;10.880;2023-04-29T04:43:34;98315;;;9.56;87.45
4326;BME280;58429;49.826;10.880;2023-04-29T04:44:34;98314;;;9.56;87.44
4326;BME280;58429;49.826;10.880;2023-04-29T04:45:34;98313;;;9.6;87.46
4326;BME280;58429;49.826;10.880;2023-04-29T04:46:34;98312;;;9.57;87.44
4326;BME280;58429;49.826;10.880;2023-04-29T04:47:34;98319;;;9.59;87.4
4326;BME280;58429;49.826;10.880;2023-04-29T04:48:34;98313;;;9.6;87.44
4326;BME280;58429;49.826;10.880;2023-04-29T04:49:34;98307;;;9.63;87.44
4326;BME280;58429;49.826;10.880;2023-04-29T04:50:34;98310;;;9.66;87.4
4326;BME280;58429;49.826;10.880;2023-04-29T04:51:35;98304;;;9.67;87.38
4326;BME280;58429;49.826;10.880;2023-04-29T04:52:34;98316;;;9.66;87.35
4326;BME280;58429;49.826;10.880;2023-04-29T04:53:34;98312;;;9.71;87.36
4326;BME280;58429;49.826;10.880;2023-04-29T04:54:34;98314;;;9.74;87.35
4326;BME280;58429;49.826;10.880;2023-04-29T04:55:34;98323;;;9.75;87.36
4326;BME280;58429;49.826;10.880;2023-04-29T04:56:34;98321;;;9.78;87.34
4326;BME280;58429;49.826;10.880;2023-04-29T04:57:34;98322;;;9.75;87.35
4326;BME280;58429;49.826;10.880;2023-04-29T04:58:34;98328;;;9.76;87.35
4326;BME280;58429;49.826;10.880;2023-04-29T04:59:34;98320;;;9.79;87.37
4326;BME280;58429;49.826;10.880;2023-04-29T05:00:34;98311;;;9.8;87.4
4326;BME280;58429;49.826;10.880;2023-04-29T05:01:34;98311;;;9.82;87.38
4326;BME280;58429;49.826;10.880;2023-04-29T05:02:34;98312;;;9.82;87.35
4326;BME280;58429;49.826;10.880;2023-04-29T05:03:34;98318;;;9.85;87.35
4326;BME280;58429;49.826;10.880;2023-04-29T05:04:34;98319;;;9.88;87.35
4326;BME280;58429;49.826;10.880;2023-04-29T05:05:34;98316;;;9.87;87.34
4326;BME280;58429;49.826;10.880;2023-04-29T05:06:34;98317;;;9.88;87.35
4326;BME280;58429;49.826;10.880;2023-04-29T05:07:35;98327;;;9.91;87.35
4326;BME280;58429;49.826;10.880;2023-04-29T05:08:39;98322;;;9.96;87.34
4326;BME280;58429;49.826;10.880;2023-04-29T05:09:34;98327;;;9.97;87.34
4326;BME280;58429;49.826;10.880;2023-04-29T05:10:34;98325;;;9.96;87.35
4326;BME280;58429;49.826;10.880;2023-04-29T05:11:34;98333;;;9.96;87.36
4326;BME280;58429;49.826;10.880;2023-04-29T05:12:34;98331;;;9.95;87.39
4326;BME280;58429;49.826;10.880;2023-04-29T05:13:34;98328;;;9.96;87.37
4326;BME280;58429;49.826;10.880;2023-04-29T05:14:34;98328;;;9.95;87.38
4326;BME280;58429;49.826;10.880;2023-04-29T05:15:34;98328;;;9.99;87.39
4326;BME280;58429;49.826;10.880;2023-04-29T05:16:35;98328;;;9.97;87.38
4326;BME280;58429;49.826;10.880;2023-04-29T05:17:34;98331;;;9.98;87.36
4326;BME280;58429;49.826;10.880;2023-04-29T05:18:34;98330;;;10;87.34
4326;BME280;58429;49.826;10.880;2023-04-29T05:19:34;98335;;;10;87.33
4326;BME280;58429;49.826;10.880;2023-04-29T05:20:35;98332;;;10.02;87.33
4326;BME280;58429;49.826;10.880;2023-04-29T05:21:34;98324;;;10;87.32
4326;BME280;58429;49.826;10.880;2023-04-29T05:22:34;98323;;;10.05;87.34
4326;BME280;58429;49.826;10.880;2023-04-29T05:23:35;98323;;;10.07;87.33
4326;BME280;58429;49.826;10.880;2023-04-29T05:24:34;98322;;;10.08;87.35
4326;BME280;58429;49.826;10.880;2023-04-29T05:25:34;98323;;;10.11;87.36
4326;BME280;58429;49.826;10.880;2023-04-29T05:26:34;98322;;;10.12;87.39
4326;BME280;58429;49.826;10.880;2023-04-29T05:27:35;98327;;;10.11;87.39
4326;BME280;58429;49.826;10.880;2023-04-29T05:28:35;98321;;;10.18;87.42
4326;BME280;58429;49.826;10.880;2023-04-29T05:29:35;98327;;;10.19;87.44
4326;BME280;58429;49.826;10.880;2023-04-29T05:30:34;98325;;;10.22;87.43
4326;BME280;58429;49.826;10.880;2023-04-29T05:31:34;98329;;;10.23;87.43
4326;BME280;58429;49.826;10.880;2023-04-29T05:32:34;98329;;;10.24;87.42
4326;BME280;58429;49.826;10.880;2023-04-29T05:33:34;98323;;;10.28;87.41